Time;durP1;ratioP1;P1;durP2;ratioP2;P2;SDS_P1;SDS_P2;PMS_P1;PMS_P2;Temp;Humidity;BMP_temperature;BMP_pressure;BME280_temperature;BME280_humidity;BME280_pressure;Samples;Min_cycle;Max_cycle;Signal;HPM_P1;HPM_P2
2023/12/23 00:01:25;;;;;;;16.70;2.60;;;5.10;57.30;;;;;;5104982;28;20404;-75
2023/12/23 00:03:50;;;;;;;14.50;2.33;;;5.10;56.30;;;;;;5106376;28;20476;-74
2023/12/23 00:06:17;;;;;;;21.47;3.33;;;5.10;55.70;;;;;;5106038;28;20400;-75
2023/12/23 00:08:42;;;;;;;15.30;2.55;;;5.10;56.30;;;;;;5105013;28;20824;-74
2023/12/23 00:11:08;;;;;;;18.88;2.35;;;5.10;54.90;;;;;;5103305;28;20428;-74
2023/12/23 00:13:33;;;;;;;17.58;2.70;;;5.10;55.20;;;;;;5098752;28;20401;-75
2023/12/23 00:15:59;;;;;;;16.50;2.47;;;5.10;54.70;;;;;;5088727;28;20414;-75
2023/12/23 00:18:25;;;;;;;14.40;2.17;;;5.10;51.90;;;;;;5102643;28;20912;-75
2023/12/23 00:20:50;;;;;;;19.80;2.77;;;5.10;50.40;;;;;;5103678;28;20396;-75
2023/12/23 00:23:16;;;;;;;18.30;2.70;;;5.10;49.10;;;;;;5102772;28;20396;-75
2023/12/23 00:25:42;;;;;;;13.15;2.33;;;5.10;49.30;;;;;;5103574;28;20405;-76
2023/12/23 00:28:07;;;;;;;14.80;2.50;;;5.10;50.10;;;;;;5098120;28;20459;-76
2023/12/23 00:30:33;;;;;;;18.67;2.80;;;5.20;50.40;;;;;;5089493;28;20513;-74
2023/12/23 00:32:58;;;;;;;16.10;2.63;;;5.20;50.70;;;;;;5088478;28;20409;-75
2023/12/23 00:35:26;;;;;;;16.20;2.80;;;5.20;52.00;;;;;;5088325;28;20413;-75
2023/12/23 00:37:51;;;;;;;19.77;2.85;;;5.20;52.80;;;;;;5075413;28;20422;-75
2023/12/23 00:40:17;;;;;;;15.77;2.50;;;5.20;54.60;;;;;;5100203;28;20493;-75
2023/12/23 00:42:43;;;;;;;13.88;2.03;;;5.30;56.10;;;;;;5106138;28;20978;-75
2023/12/23 00:45:08;;;;;;;16.33;2.37;;;5.30;55.60;;;;;;5106171;28;20491;-75
2023/12/23 00:47:34;;;;;;;11.27;1.67;;;5.20;54.90;;;;;;5106811;28;20471;-75
2023/12/23 00:49:59;;;;;;;13.88;1.70;;;5.20;54.60;;;;;;5107378;28;20400;-75
2023/12/23 00:52:25;;;;;;;12.07;1.83;;;5.20;54.40;;;;;;5105503;28;20894;-75
2023/12/23 00:54:50;;;;;;;12.63;2.00;;;5.20;54.40;;;;;;5087822;28;20395;-75
2023/12/23 00:57:16;;;;;;;13.63;2.13;;;5.20;54.10;;;;;;5103790;28;20429;-75
2023/12/23 00:59:42;;;;;;;10.83;1.93;;;5.30;53.30;;;;;;5104276;28;20411;-75
2023/12/23 01:02:08;;;;;;;14.13;2.45;;;5.30;50.20;;;;;;5103348;28;20411;-76
2023/12/23 01:04:34;;;;;;;14.80;2.53;;;5.40;47.50;;;;;;5105588;28;20742;-76
2023/12/23 01:06:59;;;;;;;18.30;3.17;;;5.50;46.40;;;;;;5104385;28;20396;-74
2023/12/23 01:09:25;;;;;;;14.70;3.13;;;5.50;46.80;;;;;;5106906;28;20952;-75
2023/12/23 01:11:51;;;;;;;18.42;3.08;;;5.60;48.20;;;;;;5103025;28;20421;-75
2023/12/23 01:14:17;;;;;;;13.50;2.35;;;5.60;50.80;;;;;;5104020;28;20929;-75
2023/12/23 01:16:42;;;;;;;14.45;2.55;;;5.60;55.00;;;;;;5103541;28;20428;-75
2023/12/23 01:19:08;;;;;;;17.63;2.30;;;5.60;57.50;;;;;;5105985;28;20415;-75
2023/12/23 01:21:33;;;;;;;20.95;3.08;;;5.60;59.00;;;;;;5103450;28;20384;-75
2023/12/23 01:23:59;;;;;;;20.70;2.70;;;5.50;60.90;;;;;;5087234;28;20800;-75
2023/12/23 01:26:25;;;;;;;23.08;3.60;;;5.50;63.40;;;;;;5102451;28;20432;-76
2023/12/23 01:28:50;;;;;;;18.43;2.37;;;5.40;65.80;;;;;;5094795;28;20403;-76
2023/12/23 01:31:18;;;;;;;19.43;2.83;;;5.40;67.40;;;;;;5085709;28;20402;-76
2023/12/23 01:33:44;;;;;;;17.95;3.10;;;5.40;69.20;;;;;;5088937;28;20783;-76
2023/12/23 01:36:09;;;;;;;16.40;2.70;;;5.30;70.90;;;;;;5069367;28;20422;-75
2023/12/23 01:38:35;;;;;;;23.57;3.17;;;5.40;71.10;;;;;;5088924;28;20398;-76
2023/12/23 01:41:00;;;;;;;20.25;3.55;;;5.30;72.20;;;;;;5088422;28;20921;-75
2023/12/23 01:43:26;;;;;;;16.33;3.00;;;5.30;73.10;;;;;;5087813;28;20434;-76
2023/12/23 01:45:59;;;;;;;17.90;2.88;;;5.30;73.10;;;;;;5069340;28;20409;-76
2023/12/23 01:48:26;;;;;;;20.65;2.95;;;5.20;74.40;;;;;;5090942;28;20776;-76
2023/12/23 01:50:55;;;;;;;17.17;2.97;;;5.20;74.90;;;;;;5091617;28;20413;-76
2023/12/23 01:53:22;;;;;;;18.85;2.72;;;5.20;75.40;;;;;;5090986;28;20397;-76
2023/12/23 01:55:48;;;;;;;22.17;2.73;;;5.20;76.20;;;;;;5091057;28;20401;-76
2023/12/23 01:58:14;;;;;;;15.98;2.88;;;5.20;76.50;;;;;;5080696;28;20410;-76
2023/12/23 02:00:40;;;;;;;19.17;2.67;;;5.20;78.10;;;;;;5091200;28;20426;-76
2023/12/23 02:03:05;;;;;;;15.80;2.55;;;5.20;79.20;;;;;;5093733;28;20501;-76
2023/12/23 02:05:31;;;;;;;21.43;2.73;;;5.20;79.60;;;;;;5107162;28;20493;-76
2023/12/23 02:07:57;;;;;;;20.98;3.45;;;5.20;80.40;;;;;;5086100;28;20474;-75
2023/12/23 02:10:23;;;;;;;22.02;3.70;;;5.10;81.80;;;;;;5101284;28;20404;-75
2023/12/23 02:13:21;;;;;;;20.42;2.88;;;5.10;82.70;;;;;;5101825;28;20418;-75
2023/12/23 02:15:47;;;;;;;18.80;2.60;;;5.10;83.40;;;;;;5096095;28;20808;-75
2023/12/23 02:18:12;;;;;;;21.90;2.88;;;5.10;85.20;;;;;;5105911;28;20392;-76
2023/12/23 02:20:38;;;;;;;16.57;2.73;;;5.10;85.20;;;;;;5106504;28;20735;-75
2023/12/23 02:23:04;;;;;;;20.13;3.17;;;5.10;86.00;;;;;;5105579;28;21261;-75
2023/12/23 02:25:30;;;;;;;21.75;2.97;;;5.10;86.60;;;;;;5106482;28;20420;-75
2023/12/23 02:27:59;;;;;;;19.17;2.53;;;5.10;86.70;;;;;;5086833;28;20477;-76
2023/12/23 02:30:26;;;;;;;16.80;2.42;;;5.20;87.20;;;;;;5106130;28;20401;-76
2023/12/23 02:32:53;;;;;;;15.17;2.40;;;5.20;87.60;;;;;;5094136;28;20779;-76
2023/12/23 02:35:24;;;;;;;14.63;2.65;;;5.40;87.40;;;;;;5094127;28;20489;-75
2023/12/23 02:37:50;;;;;;;18.17;2.83;;;5.40;85.70;;;;;;5104871;28;20428;-76
2023/12/23 02:40:16;;;;;;;15.07;2.50;;;5.50;84.20;;;;;;5100217;28;20800;-75
2023/12/23 02:42:41;;;;;;;20.17;2.93;;;5.60;83.40;;;;;;5100329;28;20485;-76
2023/12/23 02:45:07;;;;;;;15.87;2.43;;;5.60;82.20;;;;;;5105282;28;20428;-76
2023/12/23 02:47:33;;;;;;;17.13;2.70;;;5.60;81.30;;;;;;5104120;28;20396;-75
2023/12/23 02:49:58;;;;;;;17.90;2.75;;;5.70;79.90;;;;;;5103242;28;20400;-76
2023/12/23 02:52:24;;;;;;;12.80;2.20;;;5.70;78.50;;;;;;5103963;28;20401;-75
2023/12/23 02:54:49;;;;;;;11.82;1.95;;;5.70;76.60;;;;;;5103642;28;20495;-75
2023/12/23 02:57:15;;;;;;;13.70;2.30;;;5.80;75.60;;;;;;5102598;28;20434;-76
2023/12/23 02:59:41;;;;;;;13.15;1.63;;;5.80;74.70;;;;;;5101083;28;20408;-76
2023/12/23 03:02:06;;;;;;;11.75;1.70;;;5.80;73.50;;;;;;5103112;28;20408;-75
2023/12/23 03:04:33;;;;;;;11.73;1.60;;;5.80;73.20;;;;;;5093194;28;20469;-76
2023/12/23 03:06:59;;;;;;;12.23;1.85;;;5.80;73.40;;;;;;5094207;28;20982;-76
2023/12/23 03:09:25;;;;;;;8.40;1.20;;;5.80;73.70;;;;;;5104550;28;20388;-75
2023/12/23 03:11:51;;;;;;;11.90;1.58;;;5.80;74.20;;;;;;5105201;28;20436;-76
2023/12/23 03:14:17;;;;;;;11.10;1.90;;;5.80;74.20;;;;;;5104591;28;20440;-76
2023/12/23 03:16:42;;;;;;;10.93;1.77;;;5.80;74.30;;;;;;5087703;28;20519;-76
2023/12/23 03:19:09;;;;;;;9.47;1.77;;;5.80;74.70;;;;;;5098970;28;20398;-76
2023/12/23 03:21:35;;;;;;;10.35;1.40;;;5.70;75.30;;;;;;5098612;28;20440;-76
2023/12/23 03:24:00;;;;;;;10.38;1.67;;;5.80;76.10;;;;;;5104949;28;20427;-76
2023/12/23 03:26:26;;;;;;;15.37;1.90;;;5.70;76.70;;;;;;5104759;28;20449;-76
2023/12/23 03:28:52;;;;;;;10.48;1.98;;;5.70;78.10;;;;;;5093967;28;20440;-76
2023/12/23 03:31:18;;;;;;;11.93;1.70;;;5.60;78.60;;;;;;5093933;28;21234;-76
2023/12/23 03:33:44;;;;;;;14.05;2.10;;;5.60;80.20;;;;;;5102418;28;20744;-76
2023/12/23 03:36:09;;;;;;;14.82;1.83;;;5.60;80.50;;;;;;5095515;28;20550;-76
2023/12/23 03:38:35;;;;;;;10.97;1.80;;;5.50;82.30;;;;;;5101371;28;20898;-76
2023/12/23 03:41:01;;;;;;;12.63;1.65;;;5.50;83.00;;;;;;5076442;28;20410;-76
2023/12/23 03:43:26;;;;;;;12.20;1.70;;;5.50;85.30;;;;;;5101886;28;20404;-76
2023/12/23 03:45:52;;;;;;;12.00;1.90;;;5.50;85.80;;;;;;5103625;28;20572;-76
2023/12/23 03:48:17;;;;;;;10.98;1.60;;;5.40;87.90;;;;;;5098055;28;20424;-76
2023/12/23 03:50:43;;;;;;;13.47;1.87;;;5.40;88.50;;;;;;5098785;28;20461;-76
2023/12/23 03:53:09;;;;;;;17.85;1.92;;;5.40;90.10;;;;;;5100135;28;20403;-75
2023/12/23 03:55:35;;;;;;;15.43;2.00;;;5.30;90.30;;;;;;5103046;28;20396;-76
2023/12/23 03:58:02;;;;;;;14.90;1.70;;;5.30;90.70;;;;;;5100444;28;20433;-75
2023/12/23 04:00:28;;;;;;;13.68;1.85;;;5.30;91.00;;;;;;5103304;28;20435;-75
2023/12/23 04:02:54;;;;;;;10.25;1.20;;;5.30;92.00;;;;;;5101261;28;20428;-76
2023/12/23 04:05:21;;;;;;;14.63;1.67;;;5.20;92.30;;;;;;5103751;28;20428;-75
2023/12/23 04:07:48;;;;;;;9.80;1.30;;;5.20;92.50;;;;;;5088550;28;20398;-76
2023/12/23 04:10:14;;;;;;;9.10;1.52;;;5.20;92.70;;;;;;5089041;28;20401;-76
2023/12/23 04:12:40;;;;;;;12.80;1.40;;;5.20;93.40;;;;;;5104069;28;20754;-75
2023/12/23 04:15:06;;;;;;;8.00;1.10;;;5.20;93.30;;;;;;5104822;27;20411;-75
2023/12/23 04:17:32;;;;;;;12.45;1.30;;;5.20;93.60;;;;;;5098720;28;20870;-75
2023/12/23 04:19:58;;;;;;;16.05;1.63;;;5.20;94.10;;;;;;5098252;28;20400;-75
2023/12/23 04:22:23;;;;;;;13.07;1.33;;;5.10;94.10;;;;;;5092024;28;20392;-75
2023/12/23 04:24:49;;;;;;;14.73;2.17;;;5.20;94.50;;;;;;5102646;28;20408;-76
2023/12/23 04:27:15;;;;;;;12.48;1.67;;;5.10;95.10;;;;;;5083119;28;20408;-75
2023/12/23 04:29:40;;;;;;;13.30;2.00;;;5.20;95.40;;;;;;5102831;28;20427;-77
2023/12/23 04:32:06;;;;;;;13.97;1.97;;;5.20;95.30;;;;;;5100661;28;20771;-77
2023/12/23 04:34:31;;;;;;;12.23;1.52;;;5.20;95.60;;;;;;5102567;28;20409;-77
2023/12/23 04:36:57;;;;;;;15.30;1.50;;;5.20;95.20;;;;;;5099861;28;20439;-77
2023/12/23 04:39:23;;;;;;;18.00;1.80;;;5.20;95.70;;;;;;5104205;28;20392;-77
2023/12/23 04:41:48;;;;;;;11.47;2.20;;;5.20;96.20;;;;;;5091300;28;20744;-76
2023/12/23 04:44:14;;;;;;;20.27;4.90;;;5.20;95.80;;;;;;5102200;28;20411;-77
2023/12/23 04:46:41;;;;;;;12.88;1.65;;;5.20;95.90;;;;;;5099303;28;20494;-77
2023/12/23 04:49:07;;;;;;;16.02;1.52;;;5.20;96.30;;;;;;5102211;28;20876;-76
2023/12/23 04:51:33;;;;;;;15.20;1.98;;;5.10;96.50;;;;;;5099326;28;20435;-76
2023/12/23 04:53:59;;;;;;;14.55;1.50;;;5.10;96.70;;;;;;5103496;28;20894;-77
2023/12/23 04:56:24;;;;;;;13.17;1.47;;;5.10;97.20;;;;;;5100349;28;20461;-77
2023/12/23 04:58:50;;;;;;;14.53;1.50;;;5.10;97.40;;;;;;5102241;28;20905;-77
2023/12/23 05:01:16;;;;;;;11.05;1.23;;;5.10;97.30;;;;;;5099314;28;20408;-77
2023/12/23 05:03:41;;;;;;;11.18;1.35;;;5.10;97.10;;;;;;5102006;28;20815;-77
2023/12/23 05:06:07;;;;;;;9.80;1.63;;;5.10;97.10;;;;;;5094151;28;20441;-77
2023/12/23 05:08:33;;;;;;;13.15;1.20;;;5.10;97.30;;;;;;5097881;28;20912;-77
2023/12/23 05:10:59;;;;;;;11.63;1.20;;;5.10;97.60;;;;;;5100339;28;20420;-77
2023/12/23 05:13:25;;;;;;;12.88;1.00;;;5.10;97.70;;;;;;5103588;28;20436;-77
2023/12/23 05:15:50;;;;;;;10.87;1.40;;;5.10;98.10;;;;;;5099129;28;20431;-77
2023/12/23 05:18:16;;;;;;;12.00;1.10;;;5.10;98.10;;;;;;5102235;28;20475;-77
2023/12/23 05:20:42;;;;;;;7.30;1.10;;;5.10;98.00;;;;;;5098795;28;20404;-77
2023/12/23 05:23:08;;;;;;;10.65;1.73;;;5.00;98.20;;;;;;5107724;28;20492;-77
2023/12/23 05:25:33;;;;;;;7.78;0.90;;;5.00;98.20;;;;;;5097891;28;20925;-77
2023/12/23 05:27:59;;;;;;;7.07;0.90;;;5.10;98.10;;;;;;5109456;28;20388;-77
2023/12/23 05:30:25;;;;;;;8.70;0.88;;;5.00;98.10;;;;;;5105947;28;20471;-77
2023/12/23 05:32:51;;;;;;;8.05;0.90;;;5.00;98.20;;;;;;5107541;28;20401;-77
2023/12/23 05:35:16;;;;;;;11.63;1.00;;;5.00;98.10;;;;;;5098791;28;20405;-77
2023/12/23 05:37:42;;;;;;;7.63;0.80;;;5.00;98.20;;;;;;5102552;28;20427;-76
2023/12/23 05:40:09;;;;;;;7.25;0.75;;;5.00;98.40;;;;;;5106003;28;20441;-77
2023/12/23 05:42:34;;;;;;;5.68;0.80;;;5.00;98.40;;;;;;5108275;27;20820;-77
2023/12/23 05:45:00;;;;;;;8.23;0.93;;;5.00;98.60;;;;;;5105613;28;20482;-75
2023/12/23 05:47:27;;;;;;;8.50;1.27;;;5.00;98.60;;;;;;5107235;28;20508;-75
2023/12/23 05:49:52;;;;;;;11.80;1.52;;;5.00;98.70;;;;;;5105703;28;20407;-76
2023/12/23 05:52:18;;;;;;;9.33;0.63;;;5.00;98.90;;;;;;5108310;28;20392;-76
2023/12/23 05:54:44;;;;;;;10.60;1.00;;;4.90;98.50;;;;;;5105517;28;20472;-76
2023/12/23 05:57:09;;;;;;;9.05;0.90;;;4.90;98.90;;;;;;5107433;28;20801;-76
2023/12/23 05:59:35;;;;;;;4.43;0.43;;;4.90;99.10;;;;;;5105476;28;20414;-76
2023/12/23 06:02:00;;;;;;;4.63;0.50;;;4.90;99.00;;;;;;5107674;28;20399;-76
2023/12/23 06:04:27;;;;;;;6.33;0.57;;;4.90;99.10;;;;;;5101255;28;20405;-76
2023/12/23 06:06:52;;;;;;;5.97;0.47;;;4.90;99.20;;;;;;5093776;28;20473;-76
2023/12/23 06:09:18;;;;;;;5.43;0.40;;;4.90;99.40;;;;;;5107777;28;20525;-76
2023/12/23 06:11:45;;;;;;;3.88;0.50;;;4.90;99.30;;;;;;5108870;27;20455;-76
2023/12/23 06:14:11;;;;;;;6.82;0.65;;;4.90;99.40;;;;;;5101618;28;20840;-76
2023/12/23 06:16:40;;;;;;;4.57;0.30;;;4.90;99.50;;;;;;5109482;28;20832;-76
2023/12/23 06:19:06;;;;;;;2.65;0.20;;;4.80;99.40;;;;;;5091916;28;20971;-76
2023/12/23 06:21:32;;;;;;;3.70;0.40;;;4.90;99.50;;;;;;5108979;27;20392;-76
2023/12/23 06:23:58;;;;;;;3.20;0.35;;;4.80;99.50;;;;;;5106486;28;20403;-76
2023/12/23 06:26:24;;;;;;;5.20;0.60;;;4.80;99.50;;;;;;5090795;28;20404;-76
2023/12/23 06:28:50;;;;;;;5.00;0.55;;;4.80;99.60;;;;;;5106023;28;20890;-76
2023/12/23 06:31:16;;;;;;;4.75;0.70;;;4.80;99.60;;;;;;5107464;28;20427;-76
2023/12/23 06:33:41;;;;;;;4.05;0.43;;;4.80;99.60;;;;;;5102794;28;20399;-75
2023/12/23 06:36:08;;;;;;;8.47;0.80;;;4.80;99.60;;;;;;5096386;28;20405;-76
2023/12/23 06:38:34;;;;;;;4.60;0.38;;;4.80;99.70;;;;;;5102829;28;20770;-76
2023/12/23 06:41:00;;;;;;;4.87;0.60;;;4.80;99.60;;;;;;5096468;28;20393;-76
2023/12/23 06:43:26;;;;;;;5.57;0.40;;;4.90;99.70;;;;;;5103004;28;20391;-76
2023/12/23 06:45:51;;;;;;;5.15;0.60;;;4.90;99.70;;;;;;5105093;28;20407;-76
2023/12/23 06:48:17;;;;;;;5.67;0.50;;;4.90;99.70;;;;;;5101366;28;20394;-76
2023/12/23 06:50:43;;;;;;;5.70;0.60;;;4.90;99.80;;;;;;5104950;28;20483;-76
2023/12/23 06:53:08;;;;;;;4.43;0.40;;;4.90;99.80;;;;;;5101791;28;20421;-76
2023/12/23 06:55:35;;;;;;;7.07;0.70;;;4.90;99.90;;;;;;5104839;28;20500;-76
2023/12/23 06:58:00;;;;;;;4.50;0.40;;;4.90;99.90;;;;;;5101588;28;20473;-76
2023/12/23 07:00:26;;;;;;;7.10;0.33;;;4.90;99.90;;;;;;5104806;28;20401;-77
2023/12/23 07:02:52;;;;;;;4.88;0.43;;;4.90;99.90;;;;;;5100910;28;20410;-77
2023/12/23 07:05:18;;;;;;;5.53;0.40;;;4.90;99.90;;;;;;5099591;28;20500;-77
2023/12/23 07:07:44;;;;;;;5.82;0.50;;;4.90;99.90;;;;;;5093454;28;20408;-77
2023/12/23 07:10:10;;;;;;;6.03;0.55;;;4.90;99.90;;;;;;5106454;28;20906;-77
2023/12/23 07:12:36;;;;;;;5.43;0.57;;;4.90;99.90;;;;;;5103808;28;20409;-76
2023/12/23 07:15:06;;;;;;;5.50;0.70;;;4.90;99.90;;;;;;5106632;28;20997;-76
2023/12/23 07:17:32;;;;;;;5.47;0.50;;;4.90;99.90;;;;;;5104435;28;20985;-76
2023/12/23 07:19:57;;;;;;;3.45;0.80;;;4.80;99.90;;;;;;5095282;28;20473;-76
2023/12/23 07:22:23;;;;;;;6.40;0.50;;;4.80;99.90;;;;;;5104754;28;20483;-76
2023/12/23 07:24:49;;;;;;;4.97;0.40;;;4.80;99.90;;;;;;5105696;28;20408;-76
2023/12/23 07:27:14;;;;;;;5.57;0.20;;;4.80;99.90;;;;;;5104754;28;20397;-76
2023/12/23 07:29:40;;;;;;;4.63;0.40;;;4.80;99.90;;;;;;5088709;28;20898;-76
2023/12/23 07:32:06;;;;;;;4.65;0.40;;;4.90;99.90;;;;;;5105736;28;20426;-76
2023/12/23 07:34:32;;;;;;;5.97;0.50;;;4.80;99.90;;;;;;5106496;28;20492;-76
2023/12/23 07:36:58;;;;;;;2.90;0.35;;;4.80;99.90;;;;;;5105444;28;20507;-75
2023/12/23 07:39:23;;;;;;;3.77;0.30;;;4.80;99.90;;;;;;5094912;28;20410;-76
2023/12/23 07:41:49;;;;;;;4.03;0.23;;;4.80;99.90;;;;;;5104819;28;20401;-76
2023/12/23 07:44:14;;;;;;;3.20;0.20;;;4.80;99.90;;;;;;5094780;28;20767;-76
2023/12/23 07:46:40;;;;;;;2.70;0.20;;;4.80;99.90;;;;;;5104354;28;20408;-76
2023/12/23 07:49:05;;;;;;;3.47;0.30;;;4.80;99.90;;;;;;5106528;28;20909;-76
2023/12/23 07:51:31;;;;;;;3.83;0.40;;;4.80;99.90;;;;;;5099715;28;20402;-76
2023/12/23 07:53:57;;;;;;;3.60;0.40;;;4.80;99.90;;;;;;5097857;28;21048;-76
2023/12/23 07:56:24;;;;;;;2.25;0.30;;;4.80;99.90;;;;;;5102067;28;20436;-76
2023/12/23 07:58:50;;;;;;;4.15;0.30;;;4.80;99.90;;;;;;5103450;28;20419;-76
2023/12/23 08:01:15;;;;;;;2.28;0.30;;;4.80;99.90;;;;;;5100906;28;20404;-77
2023/12/23 08:03:41;;;;;;;5.63;0.33;;;4.80;99.90;;;;;;5103743;28;20412;-75
2023/12/23 08:06:06;;;;;;;3.25;0.30;;;4.80;99.90;;;;;;5098577;28;20957;-75
2023/12/23 08:08:32;;;;;;;3.30;0.20;;;4.80;99.90;;;;;;5098820;28;20483;-75
2023/12/23 08:10:58;;;;;;;4.80;0.30;;;4.80;99.90;;;;;;5103344;28;20443;-76
2023/12/23 08:13:23;;;;;;;3.83;0.25;;;4.80;99.90;;;;;;5104575;28;20486;-75
2023/12/23 08:15:49;;;;;;;0.97;0.20;;;4.80;99.90;;;;;;5103576;28;20392;-76
2023/12/23 08:18:17;;;;;;;4.33;0.40;;;4.80;99.90;;;;;;5105025;28;20428;-76
2023/12/23 08:20:43;;;;;;;3.55;0.40;;;4.80;99.90;;;;;;5100400;28;20410;-75
2023/12/23 08:23:09;;;;;;;2.63;0.20;;;4.80;99.90;;;;;;5105409;28;20393;-76
2023/12/23 08:25:34;;;;;;;2.22;0.25;;;4.80;99.90;;;;;;5101488;28;20496;-76
2023/12/23 08:28:00;;;;;;;2.88;0.35;;;4.80;99.90;;;;;;5103253;28;20408;-76
2023/12/23 08:30:26;;;;;;;2.10;0.33;;;4.90;99.90;;;;;;5100025;28;20454;-76
2023/12/23 08:32:51;;;;;;;2.60;0.40;;;4.90;99.90;;;;;;5102943;28;20423;-76
2023/12/23 08:35:17;;;;;;;2.73;0.50;;;4.90;99.90;;;;;;5101140;28;20396;-76
2023/12/23 08:37:43;;;;;;;2.83;0.60;;;4.90;99.90;;;;;;5102591;28;20512;-76
2023/12/23 08:40:10;;;;;;;4.43;0.70;;;4.90;99.90;;;;;;5097475;28;20402;-76
2023/12/23 08:42:36;;;;;;;5.28;1.10;;;4.90;99.90;;;;;;5095121;28;20404;-76
2023/12/23 08:45:01;;;;;;;4.68;1.30;;;4.90;99.90;;;;;;5097518;28;20406;-77
2023/12/23 08:47:27;;;;;;;6.82;1.42;;;4.90;99.90;;;;;;5103682;28;20804;-76
2023/12/23 08:49:53;;;;;;;3.73;1.40;;;4.90;99.90;;;;;;5099792;28;20467;-77
2023/12/23 08:52:18;;;;;;;6.20;1.77;;;4.90;99.90;;;;;;5102260;28;20404;-77
2023/12/23 08:54:44;;;;;;;2.40;0.70;;;4.90;99.90;;;;;;5097494;28;20401;-77
2023/12/23 08:57:10;;;;;;;3.57;0.90;;;4.90;99.90;;;;;;5094163;28;20516;-77
2023/12/23 08:59:35;;;;;;;3.25;0.60;;;4.90;99.90;;;;;;5078361;28;20903;-77
2023/12/23 09:02:02;;;;;;;2.80;0.50;;;4.90;99.90;;;;;;5094329;28;20419;-77
2023/12/23 09:04:29;;;;;;;5.22;0.68;;;4.90;99.90;;;;;;5089189;28;20466;-77
2023/12/23 09:06:55;;;;;;;2.60;0.50;;;4.90;99.90;;;;;;5086204;28;20803;-77
2023/12/23 09:09:21;;;;;;;2.65;0.50;;;4.90;99.90;;;;;;5088899;28;21288;-77
2023/12/23 09:11:46;;;;;;;5.00;0.60;;;5.00;99.90;;;;;;5082772;28;20497;-75
2023/12/23 09:14:12;;;;;;;3.00;0.70;;;5.00;99.90;;;;;;5079987;28;20403;-75
2023/12/23 09:16:38;;;;;;;3.33;0.90;;;5.00;99.90;;;;;;5087221;28;21065;-76
2023/12/23 09:19:04;;;;;;;4.00;1.20;;;5.00;99.90;;;;;;5083469;28;20638;-76
2023/12/23 09:21:30;;;;;;;5.72;1.05;;;5.00;99.90;;;;;;5084875;28;20410;-77
2023/12/23 09:23:55;;;;;;;4.30;1.15;;;5.00;99.90;;;;;;5085666;28;21192;-78
2023/12/23 09:26:24;;;;;;;4.60;1.20;;;5.00;99.90;;;;;;5085208;28;20778;-77
2023/12/23 09:28:52;;;;;;;5.00;1.45;;;5.00;99.90;;;;;;5082874;28;20750;-76
2023/12/23 09:31:18;;;;;;;4.00;1.13;;;5.10;99.90;;;;;;5084071;28;20416;-75
2023/12/23 09:33:44;;;;;;;2.80;0.83;;;5.10;99.90;;;;;;5073263;28;20400;-75
2023/12/23 09:36:10;;;;;;;3.03;0.90;;;5.10;99.90;;;;;;5087617;28;21001;-73
2023/12/23 09:38:36;;;;;;;2.87;1.00;;;5.10;99.90;;;;;;5085701;28;20425;-74
2023/12/23 09:41:02;;;;;;;4.75;1.48;;;5.10;99.90;;;;;;5081280;28;20417;-74
2023/12/23 09:43:28;;;;;;;4.57;1.70;;;5.10;99.90;;;;;;5082076;28;20411;-74
2023/12/23 09:45:56;;;;;;;7.05;1.90;;;5.20;99.90;;;;;;5087799;28;20817;-74
2023/12/23 09:48:22;;;;;;;5.80;2.30;;;5.20;99.90;;;;;;5096552;28;20412;-75
2023/12/23 09:50:49;;;;;;;5.77;2.23;;;5.20;99.90;;;;;;5104175;28;20420;-75
2023/12/23 09:53:19;;;;;;;5.65;2.30;;;5.20;99.90;;;;;;5097105;28;20963;-74
2023/12/23 09:55:45;;;;;;;7.20;2.08;;;5.20;99.90;;;;;;5077857;28;20403;-75
2023/12/23 09:58:13;;;;;;;7.32;2.30;;;5.20;99.90;;;;;;5090074;28;20428;-75
2023/12/23 10:00:39;;;;;;;5.13;2.30;;;5.20;99.90;;;;;;5106090;28;20416;-75
2023/12/23 10:03:04;;;;;;;5.88;2.20;;;5.20;99.90;;;;;;5099246;28;20429;-75
2023/12/23 10:05:30;;;;;;;6.10;2.33;;;5.30;99.90;;;;;;5085540;28;20470;-75
2023/12/23 10:07:59;;;;;;;6.40;2.50;;;5.30;99.90;;;;;;5087647;28;20447;-75
2023/12/23 10:10:25;;;;;;;7.05;2.40;;;5.30;99.90;;;;;;5091421;28;20413;-75
2023/12/23 10:12:52;;;;;;;5.47;2.30;;;5.30;99.90;;;;;;5092935;28;20402;-75
2023/12/23 10:15:18;;;;;;;5.10;2.22;;;5.30;99.90;;;;;;5095979;28;20432;-75
2023/12/23 10:17:43;;;;;;;3.63;1.80;;;5.30;99.90;;;;;;5102128;28;20434;-75
2023/12/23 10:20:15;;;;;;;4.10;1.80;;;5.30;99.90;;;;;;5102469;28;20763;-75
2023/12/23 10:22:45;;;;;;;5.25;2.08;;;5.30;99.90;;;;;;5089762;28;20402;-76
2023/12/23 10:25:14;;;;;;;3.80;1.77;;;5.30;99.90;;;;;;5099504;28;20462;-76
2023/12/23 10:27:41;;;;;;;6.57;1.90;;;5.30;99.90;;;;;;5108659;28;20405;-76
2023/12/23 10:30:11;;;;;;;3.75;1.80;;;5.40;99.90;;;;;;5100787;28;20426;-75
2023/12/23 10:32:38;;;;;;;3.38;1.42;;;5.40;99.90;;;;;;5092469;28;20430;-75
2023/12/23 10:35:06;;;;;;;3.35;1.17;;;5.40;99.90;;;;;;5098258;28;20928;-75
2023/12/23 10:37:33;;;;;;;3.13;1.30;;;5.40;99.90;;;;;;5093162;28;20448;-76
2023/12/23 10:40:17;;;;;;;4.03;1.40;;;5.40;99.90;;;;;;5103708;28;20415;-76
2023/12/23 10:42:44;;;;;;;2.90;1.20;;;5.40;99.90;;;;;;5099601;28;20506;-76
2023/12/23 10:45:12;;;;;;;3.15;1.55;;;5.40;99.90;;;;;;5096712;28;20421;-76
2023/12/23 10:47:38;;;;;;;3.28;1.00;;;5.50;99.90;;;;;;5087669;28;20417;-76
2023/12/23 10:50:05;;;;;;;2.55;1.10;;;5.50;99.90;;;;;;5093324;28;20465;-75
2023/12/23 10:52:32;;;;;;;1.73;0.77;;;5.50;99.90;;;;;;5103224;28;20406;-76
2023/12/23 10:55:01;;;;;;;2.95;0.90;;;5.50;99.90;;;;;;5096323;28;20456;-76
2023/12/23 10:57:31;;;;;;;1.25;0.40;;;5.50;99.90;;;;;;5095320;28;20424;-76
2023/12/23 10:59:57;;;;;;;1.00;0.40;;;5.60;99.90;;;;;;5109374;28;20411;-76
2023/12/23 11:02:34;;;;;;;1.37;0.30;;;5.60;99.90;;;;;;5089021;28;20422;-76
2023/12/23 11:05:05;;;;;;;1.42;0.40;;;5.60;99.90;;;;;;5102864;28;20890;-76
2023/12/23 11:07:36;;;;;;;1.80;0.40;;;5.60;99.90;;;;;;5109446;28;20404;-75
2023/12/23 11:10:03;;;;;;;1.43;0.30;;;5.60;99.90;;;;;;5089869;28;20472;-75
2023/12/23 11:12:30;;;;;;;0.60;0.30;;;5.60;99.90;;;;;;5091194;28;20405;-75
2023/12/23 11:14:59;;;;;;;1.13;0.30;;;5.60;99.90;;;;;;5087845;28;20430;-75
2023/12/23 11:17:26;;;;;;;0.80;0.30;;;5.60;99.90;;;;;;5088397;28;20497;-75
2023/12/23 11:20:00;;;;;;;1.63;0.47;;;5.70;99.90;;;;;;5097677;28;20426;-75
2023/12/23 11:22:36;;;;;;;2.05;0.55;;;5.70;99.90;;;;;;5100803;28;20403;-75
2023/12/23 11:25:02;;;;;;;1.53;0.60;;;5.70;99.90;;;;;;5105358;28;21364;-75
2023/12/23 11:27:33;;;;;;;2.17;0.95;;;5.70;99.90;;;;;;5103840;28;20419;-75
2023/12/23 11:30:08;;;;;;;1.23;0.60;;;5.70;99.90;;;;;;5105016;28;20447;-76
2023/12/23 11:32:37;;;;;;;1.90;0.50;;;5.80;99.90;;;;;;5105189;28;20409;-75
2023/12/23 11:35:09;;;;;;;1.25;0.52;;;5.70;99.90;;;;;;5089488;28;20399;-76
2023/12/23 11:37:54;;;;;;;1.40;0.40;;;5.80;99.90;;;;;;5087747;28;20991;-77
2023/12/23 11:40:20;;;;;;;1.63;0.50;;;5.80;99.90;;;;;;5108525;28;20447;-76
2023/12/23 11:42:47;;;;;;;1.05;0.40;;;5.80;99.90;;;;;;5105567;28;20445;-76
2023/12/23 11:45:14;;;;;;;1.45;0.50;;;5.80;99.90;;;;;;5093781;28;20433;-76
2023/12/23 11:47:40;;;;;;;0.75;0.28;;;5.80;99.90;;;;;;5085783;28;20779;-77
2023/12/23 11:50:07;;;;;;;1.27;0.40;;;5.80;99.90;;;;;;5087792;28;20488;-77
2023/12/23 11:52:36;;;;;;;1.27;0.30;;;5.80;99.90;;;;;;5102380;28;20938;-77
2023/12/23 11:55:03;;;;;;;0.60;0.20;;;5.80;99.90;;;;;;5086818;28;20422;-76
2023/12/23 11:57:31;;;;;;;1.00;0.30;;;5.80;99.90;;;;;;5100892;28;20437;-76
2023/12/23 11:59:58;;;;;;;1.05;0.30;;;5.80;99.90;;;;;;5086112;28;20426;-77
2023/12/23 12:02:25;;;;;;;1.05;0.40;;;5.80;99.90;;;;;;5084515;28;20430;-76
2023/12/23 12:04:51;;;;;;;1.60;0.55;;;5.90;99.90;;;;;;5087551;28;20453;-76
2023/12/23 12:07:18;;;;;;;1.38;0.50;;;5.80;99.90;;;;;;5095942;28;20404;-74
2023/12/23 12:09:44;;;;;;;1.10;0.47;;;5.80;99.90;;;;;;5105309;28;20425;-75
2023/12/23 12:12:09;;;;;;;1.05;0.50;;;5.90;99.90;;;;;;5103605;28;20418;-76
2023/12/23 12:14:35;;;;;;;1.55;0.68;;;5.90;99.90;;;;;;5105506;28;20487;-76
2023/12/23 12:17:01;;;;;;;1.70;0.40;;;5.90;99.90;;;;;;5100749;28;20480;-76
2023/12/23 12:19:26;;;;;;;0.98;0.20;;;5.90;99.90;;;;;;5101302;28;20408;-76
2023/12/23 12:21:52;;;;;;;0.80;0.20;;;6.00;99.90;;;;;;5106815;28;20430;-76
2023/12/23 12:24:18;;;;;;;0.60;0.20;;;6.00;99.90;;;;;;5094113;28;20442;-76
2023/12/23 12:26:44;;;;;;;0.80;0.30;;;6.00;99.90;;;;;;5104909;28;20431;-76
2023/12/23 12:29:09;;;;;;;0.55;0.20;;;6.00;99.90;;;;;;5077338;28;20406;-76
2023/12/23 12:31:37;;;;;;;0.80;0.20;;;6.00;99.90;;;;;;5091878;28;20408;-75
2023/12/23 12:34:02;;;;;;;0.90;0.30;;;6.10;99.90;;;;;;5104899;28;20424;-75
2023/12/23 12:36:28;;;;;;;0.40;0.20;;;6.20;99.90;;;;;;5086893;28;20421;-75
2023/12/23 12:38:54;;;;;;;0.60;0.20;;;6.20;99.90;;;;;;5080972;28;20481;-75
2023/12/23 12:41:19;;;;;;;0.70;0.10;;;6.20;99.90;;;;;;5100117;28;21137;-75
2023/12/23 12:43:45;;;;;;;0.20;0.10;;;6.20;99.90;;;;;;5088652;28;20410;-75
2023/12/23 12:46:16;;;;;;;0.63;0.10;;;6.10;99.90;;;;;;5090368;28;20427;-76
2023/12/23 12:48:44;;;;;;;0.10;0.00;;;6.10;99.90;;;;;;5081439;28;20408;-75